createdAt,value
2022-09-04T00:03:37.077Z,23.17
2022-09-04T00:08:29.634Z,23.19
2022-09-04T00:13:22.285Z,23.16
2022-09-04T00:18:14.972Z,23.12
2022-09-04T00:23:07.528Z,23.13
2022-09-04T00:27:59.975Z,23.11
2022-09-04T00:32:52.635Z,23.1
2022-09-04T00:37:45.101Z,23.05
2022-09-04T00:42:39.707Z,23.08
2022-09-04T00:47:32.138Z,23.04
2022-09-04T00:52:29.610Z,23
2022-09-04T00:57:17.479Z,23
2022-09-04T01:02:10.495Z,23
2022-09-04T01:07:03.083Z,22.95
2022-09-04T01:11:55.816Z,22.98
2022-09-04T01:16:48.302Z,22.88
2022-09-04T01:21:40.508Z,22.91
2022-09-04T01:26:33.066Z,22.9
2022-09-04T01:31:25.796Z,22.88
2022-09-04T01:36:18.604Z,22.85
2022-09-04T01:41:10.859Z,22.82
2022-09-04T01:46:03.385Z,22.81
2022-09-04T01:50:56.053Z,22.81
2022-09-04T01:55:48.690Z,22.79
2022-09-04T02:00:41.399Z,22.78
2022-09-04T02:05:34.098Z,22.8
2022-09-04T02:10:22.088Z,22.77
2022-09-04T02:15:14.550Z,22.77
2022-09-04T02:20:08.334Z,22.73
2022-09-04T02:25:00.975Z,22.71
2022-09-04T02:29:53.572Z,22.7
2022-09-04T02:34:46.319Z,22.72
2022-09-04T02:44:31.625Z,22.68
2022-09-04T02:54:17.031Z,22.65
2022-09-04T02:59:09.455Z,22.62
2022-09-04T03:04:02.015Z,22.6
2022-09-04T03:08:54.708Z,22.59
2022-09-04T03:13:47.357Z,22.59
2022-09-04T03:18:39.958Z,22.57
2022-09-04T03:23:32.572Z,22.56
2022-09-04T03:28:25.103Z,22.54
2022-09-04T03:33:17.674Z,22.54
2022-09-04T03:38:10.229Z,22.53
2022-09-04T03:43:02.788Z,22.51
2022-09-04T03:47:55.217Z,22.54
2022-09-04T03:52:47.811Z,22.53
2022-09-04T03:57:40.338Z,22.5
2022-09-04T04:02:33.151Z,22.48
2022-09-04T04:07:25.564Z,22.45
2022-09-04T04:12:18.126Z,22.44
2022-09-04T04:17:12.503Z,22.41
2022-09-04T04:22:03.149Z,22.39
2022-09-04T04:26:55.753Z,22.33
2022-09-04T04:31:48.279Z,22.33
2022-09-04T04:36:40.857Z,22.32
2022-09-04T04:41:33.497Z,22.32
2022-09-04T04:46:26.237Z,22.3
2022-09-04T04:51:18.789Z,22.27
2022-09-04T04:56:11.503Z,22.28
2022-09-04T05:01:03.960Z,22.25
2022-09-04T05:05:56.037Z,21.9
2022-09-04T05:10:48.119Z,21.74
2022-09-04T05:15:53.147Z,21.65
2022-09-04T05:20:32.638Z,21.18
2022-09-04T05:25:25.358Z,21.13
2022-09-04T05:30:17.590Z,21.39
2022-09-04T05:35:10.210Z,21.02
2022-09-04T05:40:02.201Z,21.04
2022-09-04T05:44:54.826Z,21.07
2022-09-04T05:49:47.199Z,20.46
2022-09-04T05:54:39.209Z,20.12
2022-09-04T05:59:32.101Z,20.59
2022-09-04T06:04:25.303Z,20.8
2022-09-04T06:09:17.884Z,20.95
2022-09-04T06:14:10.597Z,20.95
2022-09-04T06:19:03.187Z,21.08
2022-09-04T06:23:56.033Z,21.01
2022-09-04T06:28:48.504Z,20.98
2022-09-04T06:33:40.556Z,20.73
2022-09-04T06:38:33.083Z,19.9
2022-09-04T06:43:26.534Z,20.43
2022-09-04T06:48:18.694Z,20.16
2022-09-04T06:53:10.515Z,19.42
2022-09-04T06:58:02.562Z,19.37
2022-09-04T07:02:56.770Z,20.5
2022-09-04T07:07:48.097Z,20.21
2022-09-04T07:12:40.787Z,19.34
2022-09-04T07:17:34.446Z,20
2022-09-04T07:22:26.017Z,19.32
2022-09-04T07:27:19.317Z,20.21
2022-09-04T07:32:11.037Z,19.63
2022-09-04T07:37:04.842Z,20.2
2022-09-04T07:41:57.011Z,19.9
2022-09-04T07:46:49.782Z,20.41
2022-09-04T07:51:42.397Z,20.63
2022-09-04T07:56:34.451Z,20.69
2022-09-04T08:01:27.234Z,20.87
2022-09-04T08:06:19.595Z,21.01
2022-09-04T08:11:12.370Z,20.95
2022-09-04T08:16:04.682Z,20.91
2022-09-04T08:20:57.621Z,21.17
2022-09-04T08:25:45.323Z,21.42
2022-09-04T08:30:37.884Z,21.66
2022-09-04T08:35:26.924Z,21.78
2022-09-04T08:40:19.567Z,21.87
2022-09-04T08:45:13.482Z,21.95
2022-09-04T08:50:01.436Z,22.04
2022-09-04T08:54:54.148Z,22.12
2022-09-04T08:59:47.946Z,22.17
2022-09-04T09:04:40.587Z,22.23
2022-09-04T09:09:33.477Z,22.27
2022-09-04T09:19:19.086Z,22.36
2022-09-04T09:28:59.760Z,22.44
2022-09-04T09:33:53.691Z,22.48
2022-09-04T09:38:41.523Z,22.51
2022-09-04T09:43:34.188Z,22.54
2022-09-04T09:48:28.052Z,22.57
2022-09-04T09:53:20.509Z,22.61
2022-09-04T09:58:13.040Z,22.62
2022-09-04T10:03:05.712Z,22.65
2022-09-04T10:07:58.478Z,22.69
2022-09-04T10:12:50.998Z,22.7
2022-09-04T10:17:43.769Z,22.74
2022-09-04T10:22:36.485Z,22.77
2022-09-04T10:27:29.507Z,22.82
2022-09-04T10:32:22.586Z,22.87
2022-09-04T10:37:15.094Z,22.92
2022-09-04T10:47:00.221Z,22.98
2022-09-04T10:51:52.766Z,23.03
2022-09-04T10:56:45.623Z,23.08
2022-09-04T11:01:38.460Z,23.15
2022-09-04T11:06:31.158Z,23.22
2022-09-04T11:11:23.734Z,23.27
2022-09-04T11:16:16.400Z,23.32
2022-09-04T11:21:09.179Z,23.39
2022-09-04T11:26:01.923Z,23.45
2022-09-04T11:30:54.543Z,23.49
2022-09-04T11:35:47.262Z,23.54
2022-09-04T11:40:40.012Z,23.58
2022-09-04T11:45:32.819Z,23.63
2022-09-04T11:50:25.582Z,23.7
2022-09-04T11:55:18.474Z,23.75
2022-09-04T12:00:12.758Z,23.79
2022-09-04T12:05:03.873Z,23.83
2022-09-04T12:09:56.564Z,23.87
2022-09-04T12:14:49.242Z,23.91
2022-09-04T12:19:42.089Z,23.97
2022-09-04T12:24:34.483Z,24.02
2022-09-04T12:29:27.266Z,24.05
2022-09-04T12:34:19.832Z,24.11
2022-09-04T12:39:12.543Z,24.15
2022-09-04T12:44:05.159Z,24.19
2022-09-04T12:48:58.049Z,24.25
2022-09-04T12:53:52.877Z,24.28
2022-09-04T12:58:43.470Z,24.34
2022-09-04T13:03:36.446Z,24.4
2022-09-04T13:08:29.068Z,24.48
2022-09-04T13:13:21.740Z,24.54
2022-09-04T13:18:14.461Z,24.6
2022-09-04T13:23:07.232Z,24.69
2022-09-04T13:28:00.049Z,24.77
2022-09-04T13:32:52.939Z,24.8
2022-09-04T13:37:45.718Z,24.86
2022-09-04T13:42:38.490Z,24.89
2022-09-04T13:47:32.300Z,24.91
2022-09-04T13:52:23.994Z,24.91
2022-09-04T13:57:16.675Z,24.92
2022-09-04T14:02:09.176Z,24.93
2022-09-04T14:07:01.907Z,24.97
2022-09-04T14:11:54.665Z,25.01
2022-09-04T14:16:47.510Z,25.04
2022-09-04T14:21:40.746Z,25.06
2022-09-04T14:26:32.935Z,25.06
2022-09-04T14:31:20.976Z,25.05
2022-09-04T14:36:13.374Z,25.1
2022-09-04T14:41:06.943Z,25.11
2022-09-04T14:45:59.511Z,25.13
2022-09-04T14:50:52.491Z,25.14
2022-09-04T14:55:45.297Z,25.12
2022-09-04T15:00:38.075Z,25.12
2022-09-04T15:05:30.856Z,25.11
2022-09-04T15:10:23.683Z,25.13
2022-09-04T15:15:16.529Z,25.13
2022-09-04T15:20:09.325Z,25.15
2022-09-04T15:25:02.027Z,25.15
2022-09-04T15:29:54.628Z,25.16
2022-09-04T15:34:47.261Z,25.13
2022-09-04T15:39:39.953Z,25.14
2022-09-04T15:44:32.580Z,25.16
2022-09-04T15:49:25.455Z,25.14
2022-09-04T15:54:18.480Z,25.15
2022-09-04T16:04:04.226Z,25.14
2022-09-04T16:08:56.992Z,25.12
2022-09-04T16:13:49.739Z,25.13
2022-09-04T16:18:42.434Z,25.12
2022-09-04T16:23:35.287Z,25.11
2022-09-04T16:28:28.031Z,25.11
2022-09-04T16:33:27.601Z,25.1
2022-09-04T16:38:13.051Z,25.09
2022-09-04T16:43:05.691Z,25.09
2022-09-04T16:47:58.319Z,25.1
2022-09-04T16:52:53.825Z,25.09
2022-09-04T16:57:43.772Z,25.03
2022-09-04T17:02:36.755Z,25.04
2022-09-04T17:07:29.353Z,25.06
2022-09-04T17:12:22.264Z,25.13
2022-09-04T17:24:56.371Z,25.11
2022-09-04T17:29:05.577Z,25.1
2022-09-04T17:31:48.694Z,25.09
2022-09-04T17:39:49.077Z,25.09
2022-09-04T17:41:35.434Z,25.02
2022-09-04T17:46:21.890Z,24.99
2022-09-04T17:51:15.488Z,25.02
2022-09-04T17:56:08.315Z,25.01
2022-09-04T18:01:14.793Z,25
2022-09-04T18:05:54.070Z,25
2022-09-04T18:10:46.432Z,24.97
2022-09-04T18:15:39.142Z,24.94
2022-09-04T18:20:31.835Z,24.93
2022-09-04T18:25:24.515Z,24.92
2022-09-04T18:31:11.339Z,24.89
2022-09-04T18:37:14.680Z,24.88
2022-09-04T18:40:02.959Z,24.86
2022-09-04T18:48:52.807Z,24.84
2022-09-04T18:50:26.701Z,24.83
2022-09-04T18:54:40.869Z,24.82
2022-09-04T18:59:33.646Z,24.79
2022-09-04T19:04:26.396Z,24.78
2022-09-04T19:09:18.899Z,24.75
2022-09-04T19:14:11.726Z,24.74
2022-09-04T19:19:04.965Z,24.73
2022-09-04T19:23:57.625Z,24.68
2022-09-04T19:28:52.439Z,24.71
2022-09-04T19:33:42.918Z,24.67
2022-09-04T19:41:42.996Z,24.68
2022-09-04T19:46:10.393Z,24.67
2022-09-04T19:48:21.352Z,24.66
2022-09-04T19:53:20.858Z,24.65
2022-09-04T19:58:06.681Z,24.66
2022-09-04T20:02:59.493Z,24.58
2022-09-04T20:07:52.075Z,24.6
2022-09-04T20:12:44.712Z,24.6
2022-09-04T20:17:37.376Z,24.56
2022-09-04T20:22:30.058Z,24.57
2022-09-04T20:27:22.790Z,24.58
2022-09-04T20:32:15.622Z,24.58
2022-09-04T20:37:08.010Z,24.56
2022-09-04T20:42:00.722Z,24.54
2022-09-04T20:50:00.621Z,24.52
2022-09-04T20:52:46.675Z,24.5
2022-09-04T20:57:17.103Z,24.46
2022-09-04T21:03:16.309Z,24.49
2022-09-04T21:06:24.234Z,24.46
2022-09-04T21:11:38.980Z,24.49
2022-09-04T21:16:09.599Z,24.48
2022-09-04T21:21:02.125Z,24.4
2022-09-04T21:25:54.902Z,24.46
2022-09-04T21:30:47.476Z,24.37
2022-09-04T21:40:50.608Z,24.41
2022-09-04T21:45:25.825Z,24.36
2022-09-04T21:50:21.474Z,24.35
2022-09-04T21:55:51.474Z,24.37
2022-09-04T22:02:32.912Z,24.31
2022-09-04T22:04:57.216Z,24.34
2022-09-04T22:12:48.922Z,24.29
2022-09-04T22:14:42.197Z,24.26
2022-09-04T22:19:34.856Z,24.28
2022-09-04T22:24:27.550Z,24.3
2022-09-04T22:29:22.063Z,24.26
2022-09-04T22:34:14.797Z,24.22
2022-09-04T22:39:05.757Z,24.26
2022-09-04T22:43:58.300Z,24.2
2022-09-04T22:48:57.733Z,24.22
2022-09-04T22:53:43.668Z,24.19
2022-09-04T22:58:36.478Z,24.22
2022-09-04T23:03:28.917Z,24.16
2022-09-04T23:10:30.695Z,24.17
2022-09-04T23:13:55.406Z,24.17
2022-09-04T23:18:12.878Z,24.16
2022-09-04T23:26:39.517Z,24.16
2022-09-04T23:27:51.302Z,24.12
2022-09-04T23:32:44.140Z,24.13
2022-09-04T23:37:36.843Z,24.14
2022-09-04T23:42:29.092Z,24.09
2022-09-04T23:47:46.490Z,24.08
2022-09-04T23:52:14.575Z,24.11
2022-09-04T23:57:08.136Z,24.05
